Hazel Park, Michigan
Current Conditions -  °F | °C
As of 8:53 PM on Friday 19 Dec 2014 (Local Time) from KDET Reporting Station
Clear Clear  
Wind Chill: 28°   Ceiling: Unl
Heat Index: 28°   Visibility: 10mi
Dew Point: 19°   Wind: 0mph
Humidity: 69%   Direction: NA
Pressure: 30.32"   Gusts: NA
Location:  42.46°N, 83.1°W
Report Text: KDET 200153Z 00000KT 10SM CLR M02/M07 A3032 RMK AO2 SLP274 T10221072
Loading
Personal Weather Stations






























Interactive Weather Map New forecast layout! Learn more

10-Day Weather Forecast

Advertisements
Track Severe Weather on mobile